Startpagina
METAR-TAF:

METAR-TAF

Vliegvelden :

Funchal, Madeira, Portugal

Aeroporto da Madeira

breedte: 32-41-52N, lengte: 016-46-28W, hoogte: 59 m

Actueel weer

Dit bericht is 38 minuten geleden gemaakt, om 23:30 UTC
Wind 3 kt uit het noordoosten, variërend tussen het noordnoordwesten en het zuidoosten
Temperatuur 22°C
Vochtigheid 65%
Druk 1022 hPa
Zicht 10 km of meer
Weinig wolken op 1600 ft

METAR: LPMA 272330Z 05003KT 330V140 9999 FEW016 22/15 Q1022

Tijdstip: 01:08 (00:08 UTC)

Verwachting

Dit bericht is 1 uur en het 8 minuten geleden gemaakt, om 23:00 UTC
Verwachting geldig van 28 om 00 UTC tot 28 om 24 UTC
Wind 12 kt uit het noorden
Zicht 10 km of meer
Verspreide wolken op 1500 ft
Tijdelijke
van 28 om 00 UTC tot 28 om 12 UTC
Wind 5 kt uit variabele richting

TAF: LPMA 272300Z 2800/2824 01012KT 9999 SCT015 TEMPO 2800/2812 VRB05KT

Waarnemingen en weersverwachtingen van meer dan 4000 vliegvelden (METAR en TAF).

De beschikbare stations zijn de gele en rode punten op de kaart.

Ga met uw muis naar het station om de naam te zien.

Klik dan om waarnemingen en weersverwachtingen te zien.

kaart wijzigen: klik op de groene knoppen met een zwart kruis om in te zoomen, op de groene knop met een streepje om uit te zoomen of op de groene pijlen voor aangrenzende kaarten.


METAR-TAF: